createdAt,value
2017-04-07T00:00:05.557Z,9.1
2017-04-07T00:01:08.708Z,9.1
2017-04-07T00:02:11.052Z,9.1
2017-04-07T00:03:13.907Z,9.1
2017-04-07T00:04:16.809Z,9.1
2017-04-07T00:05:19.160Z,9.1
2017-04-07T00:06:21.765Z,9
2017-04-07T00:07:23.981Z,9
2017-04-07T00:08:26.831Z,9
2017-04-07T00:09:29.680Z,9
2017-04-07T00:10:32.026Z,9
2017-04-07T00:11:35.132Z,9
2017-04-07T00:12:37.476Z,9
2017-04-07T00:13:40.910Z,9
2017-04-07T00:15:45.661Z,9
2017-04-07T00:16:48.312Z,9
2017-04-07T00:17:50.659Z,9
2017-04-07T00:18:53.512Z,9
2017-04-07T00:19:55.864Z,9
2017-04-07T00:20:58.712Z,9
2017-04-07T00:22:02.392Z,9
2017-04-07T00:24:06.655Z,8.9
2017-04-07T00:25:09.507Z,8.9
2017-04-07T00:26:11.854Z,8.9
2017-04-07T00:27:15.567Z,8.9
2017-04-07T00:28:17.407Z,8.9
2017-04-07T00:29:19.952Z,8.9
2017-04-07T00:30:22.532Z,8.9
2017-04-07T00:31:25.416Z,8.8
2017-04-07T00:33:30.927Z,8.8
2017-04-07T00:34:33.275Z,8.8
2017-04-07T00:35:35.619Z,8.7
2017-04-07T00:36:38.335Z,8.7
2017-04-07T00:37:41.190Z,8.7
2017-04-07T00:38:43.787Z,8.7
2017-04-07T00:39:46.133Z,8.7
2017-04-07T00:40:49.011Z,8.7
2017-04-07T00:41:51.861Z,8.7
2017-04-07T00:42:54.208Z,8.6
2017-04-07T00:43:57.872Z,8.6
2017-04-07T00:45:00.291Z,8.7
2017-04-07T00:46:02.133Z,8.7
2017-04-07T00:47:04.987Z,8.7
2017-04-07T00:48:07.197Z,8.7
2017-04-07T00:50:13.155Z,8.7
2017-04-07T00:52:17.905Z,8.7
2017-04-07T00:53:20.760Z,8.7
2017-04-07T00:54:24.109Z,8.7
2017-04-07T00:55:26.257Z,8.7
2017-04-07T00:56:28.601Z,8.7
2017-04-07T00:57:31.452Z,8.6
2017-04-07T00:58:33.801Z,8.6
2017-04-07T00:59:37.211Z,8.6
2017-04-07T01:00:39.351Z,8.6
2017-04-07T01:01:42.064Z,8.6
2017-04-07T01:02:44.410Z,8.6
2017-04-07T01:03:47.826Z,8.6
2017-04-07T01:04:49.673Z,8.6
2017-04-07T01:05:52.644Z,8.6
2017-04-07T01:06:54.997Z,8.6
2017-04-07T01:07:57.848Z,8.6
2017-04-07T01:09:00.197Z,8.6
2017-04-07T01:10:03.059Z,8.6
2017-04-07T01:12:08.483Z,8.5
2017-04-07T01:13:10.842Z,8.5
2017-04-07T01:16:19.009Z,8.5
2017-04-07T01:17:21.608Z,8.5
2017-04-07T01:18:23.955Z,8.6
2017-04-07T01:19:26.803Z,8.6
2017-04-07T01:20:29.652Z,8.5
2017-04-07T01:21:31.996Z,8.5
2017-04-07T01:22:35.150Z,8.5
2017-04-07T01:23:37.500Z,8.5
2017-04-07T01:24:39.574Z,8.6
2017-04-07T01:25:42.799Z,8.5
2017-04-07T01:26:45.147Z,8.5
2017-04-07T01:27:48.166Z,8.5
2017-04-07T01:28:50.379Z,8.5
2017-04-07T01:29:53.227Z,8.5
2017-04-07T01:30:56.082Z,8.5
2017-04-07T01:31:58.428Z,8.5
2017-04-07T01:33:01.528Z,8.4
2017-04-07T01:34:03.879Z,8.5
2017-04-07T01:35:06.226Z,8.5
2017-04-07T01:36:09.080Z,8.5
2017-04-07T01:57:11.593Z,8.4
2017-04-07T01:58:04.369Z,8.4
2017-04-07T01:59:07.210Z,8.5
2017-04-07T02:00:09.413Z,8.5
2017-04-07T02:01:12.258Z,8.5
2017-04-07T02:02:15.350Z,8.5
2017-04-07T02:03:17.688Z,8.5
2017-04-07T02:04:20.530Z,8.5
2017-04-07T02:05:22.871Z,8.5
2017-04-07T02:06:25.713Z,8.5
2017-04-07T02:07:28.348Z,8.5
2017-04-07T02:08:31.255Z,8.5
2017-04-07T02:09:33.600Z,8.5
2017-04-07T02:10:35.961Z,8.5
2017-04-07T02:11:38.799Z,8.5
2017-04-07T02:12:41.942Z,8.5
2017-04-07T02:18:27.472Z,8.4
2017-04-07T02:18:57.100Z,8.3
2017-04-07T02:19:59.946Z,8.4
2017-04-07T02:21:02.290Z,8.4
2017-04-07T02:22:05.137Z,8.3
2017-04-07T02:23:07.994Z,8.4
2017-04-07T02:25:13.550Z,8.3
2017-04-07T02:26:15.758Z,8.4
2017-04-07T02:27:18.135Z,8.4
2017-04-07T02:28:20.978Z,8.3
2017-04-07T02:29:23.696Z,8.3
2017-04-07T02:30:26.343Z,8.3
2017-04-07T02:31:28.687Z,8.3
2017-04-07T02:32:31.536Z,8.4
2017-04-07T02:33:34.385Z,8.3
2017-04-07T02:34:36.730Z,8.3
2017-04-07T02:35:39.751Z,8.3
2017-04-07T02:36:42.096Z,8.3
2017-04-07T02:37:44.442Z,8.3
2017-04-07T02:38:47.289Z,8.3
2017-04-07T02:39:50.132Z,8.3
2017-04-07T02:40:52.646Z,8.3
2017-04-07T02:44:00.310Z,8.3
2017-04-07T02:45:03.163Z,8.3
2017-04-07T02:46:06.175Z,8.3
2017-04-07T02:47:08.519Z,8.3
2017-04-07T02:48:10.891Z,8.3
2017-04-07T02:49:13.600Z,8.4
2017-04-07T02:50:16.319Z,8.4
2017-04-07T02:51:19.421Z,8.4
2017-04-07T02:52:21.763Z,8.4
2017-04-07T02:53:23.975Z,8.4
2017-04-07T02:54:26.687Z,8.4
2017-04-07T02:55:29.530Z,8.4
2017-04-07T02:56:32.683Z,8.3
2017-04-07T02:57:34.523Z,8.3
2017-04-07T02:58:37.366Z,8.3
2017-04-07T02:59:40.081Z,8.3
2017-04-07T03:00:42.424Z,8.3
2017-04-07T03:01:45.549Z,8.3
2017-04-07T03:03:50.801Z,8.3
2017-04-07T03:04:53.146Z,8.3
2017-04-07T03:05:55.992Z,8.3
2017-04-07T03:06:59.066Z,8.3
2017-04-07T03:08:01.145Z,8.3
2017-04-07T03:09:03.993Z,8.3
2017-04-07T03:10:06.202Z,8.3
2017-04-07T03:11:08.918Z,8.3
2017-04-07T03:12:12.014Z,8.3
2017-04-07T03:13:14.354Z,8.3
2017-04-07T03:14:16.565Z,8.3
2017-04-07T03:15:19.405Z,8.3
2017-04-07T03:16:22.121Z,8.3
2017-04-07T03:17:25.221Z,8.2
2017-04-07T03:18:27.570Z,8.2
2017-04-07T03:19:29.911Z,8.2
2017-04-07T03:20:32.758Z,8.3
2017-04-07T03:21:35.161Z,8.2
2017-04-07T03:22:38.309Z,8.2
2017-04-07T03:23:41.220Z,8.2
2017-04-07T03:24:42.927Z,8.3
2017-04-07T03:25:45.774Z,8.3
2017-04-07T03:26:48.622Z,8.3
2017-04-07T03:27:51.216Z,8.2
2017-04-07T03:28:54.059Z,8.2
2017-04-07T03:29:56.409Z,8.2
2017-04-07T03:30:59.399Z,8.2
2017-04-07T03:32:01.743Z,8.3
2017-04-07T03:33:04.894Z,8.3
2017-04-07T03:34:07.234Z,8.3
2017-04-07T03:35:09.647Z,8.3
2017-04-07T03:36:12.526Z,8.3
2017-04-07T03:37:14.868Z,8.3
2017-04-07T03:38:18.022Z,8.3
2017-04-07T03:39:20.363Z,8.3
2017-04-07T03:40:22.700Z,8.3
2017-04-07T03:41:25.410Z,8.3
2017-04-07T03:42:28.121Z,8.3
2017-04-07T03:43:30.689Z,8.3
2017-04-07T03:44:33.534Z,8.3
2017-04-07T03:45:35.876Z,8.3
2017-04-07T03:46:38.586Z,8.3
2017-04-07T03:47:41.438Z,8.3
2017-04-07T03:48:44.080Z,8.3
2017-04-07T03:49:46.421Z,8.3
2017-04-07T03:50:49.267Z,8.3
2017-04-07T03:51:51.610Z,8.3
2017-04-07T03:52:54.459Z,8.3
2017-04-07T03:53:57.105Z,8.3
2017-04-07T03:54:59.446Z,8.3
2017-04-07T03:56:02.297Z,8.3
2017-04-07T03:57:05.146Z,8.3
2017-04-07T03:58:07.351Z,8.3
2017-04-07T03:59:10.450Z,8.3
2017-04-07T04:00:12.790Z,8.3
2017-04-07T04:01:15.646Z,8.3
2017-04-07T04:02:17.892Z,8.3
2017-04-07T04:03:20.747Z,8.3
2017-04-07T04:04:23.762Z,8.3
2017-04-07T04:05:26.104Z,8.3
2017-04-07T04:06:28.450Z,8.3
2017-04-07T04:08:33.701Z,8.3
2017-04-07T04:09:36.847Z,8.3
2017-04-07T04:10:39.189Z,8.3
2017-04-07T04:11:41.599Z,8.3
2017-04-07T04:12:44.438Z,8.3
2017-04-07T04:13:47.278Z,8.3
2017-04-07T04:14:49.928Z,8.3
2017-04-07T04:15:52.268Z,8.3
2017-04-07T04:16:55.115Z,8.3
2017-04-07T04:17:57.455Z,8.3
2017-04-07T04:19:01.438Z,8.3
2017-04-07T04:20:02.975Z,8.3
2017-04-07T04:21:05.318Z,8.3
2017-04-07T04:22:08.172Z,8.3
2017-04-07T04:23:11.018Z,8.3
2017-04-07T04:25:16.444Z,8.2
2017-04-07T04:26:18.793Z,8.2
2017-04-07T04:27:21.007Z,8.2
2017-04-07T04:28:23.853Z,8.2
2017-04-07T04:29:26.701Z,8.2
2017-04-07T04:30:29.216Z,8.2
2017-04-07T04:32:34.468Z,8.1
2017-04-07T04:33:37.044Z,8.1
2017-04-07T04:34:39.888Z,8.1
2017-04-07T04:35:42.535Z,8.1
2017-04-07T04:36:44.874Z,8.1
2017-04-07T04:37:47.721Z,8.1
2017-04-07T04:38:49.961Z,8.1
2017-04-07T04:39:52.802Z,8.1
2017-04-07T04:40:55.908Z,8.1
2017-04-07T04:41:58.112Z,8.1
2017-04-07T04:43:00.825Z,8.1
2017-04-07T04:44:03.541Z,8.1
2017-04-07T04:45:05.885Z,8.1
2017-04-07T04:46:08.980Z,8.1
2017-04-07T04:47:11.318Z,8.1
2017-04-07T04:48:14.165Z,8.1
2017-04-07T04:49:16.507Z,8.1
2017-04-07T04:50:19.354Z,8.1
2017-04-07T04:51:22.051Z,8.1
2017-04-07T04:52:24.955Z,8.1
2017-04-07T04:53:27.294Z,8.1
2017-04-07T04:54:29.371Z,8.1
2017-04-07T04:56:35.297Z,8.1
2017-04-07T04:57:37.665Z,8.1
2017-04-07T04:58:41.087Z,8.1
2017-04-07T04:59:42.929Z,8.1
2017-04-07T05:01:48.488Z,8.1
2017-04-07T05:02:50.827Z,8.1
2017-04-07T05:03:53.675Z,8.1
2017-04-07T05:04:56.018Z,8.1
2017-04-07T05:05:58.872Z,8.1
2017-04-07T05:07:01.515Z,8.1
2017-04-07T05:08:03.876Z,8.1
2017-04-07T05:10:09.563Z,8.1
2017-04-07T05:11:11.907Z,8.1
2017-04-07T05:12:14.557Z,8.1
2017-04-07T05:13:16.917Z,8.1
2017-04-07T05:14:19.766Z,8.1
2017-04-07T05:16:25.581Z,8.1
2017-04-07T05:17:27.727Z,8.1
2017-04-07T05:18:30.072Z,8.1
2017-04-07T05:19:32.917Z,8.1
2017-04-07T05:20:35.762Z,8.1
2017-04-07T05:21:38.104Z,8.1
2017-04-07T05:22:41.199Z,8.1
2017-04-07T05:23:43.539Z,8.1
2017-04-07T05:24:45.876Z,8.1
2017-04-07T05:25:48.725Z,8.1
2017-04-07T05:26:51.571Z,8.1
2017-04-07T05:27:54.219Z,8.1
2017-04-07T05:28:56.559Z,8.1
2017-04-07T05:29:59.408Z,8.1
2017-04-07T05:31:01.758Z,8.1
2017-04-07T05:32:04.602Z,8.1
2017-04-07T05:33:07.251Z,8.1
2017-04-07T05:34:09.592Z,8.1
2017-04-07T05:35:12.442Z,8.1
2017-04-07T05:36:14.783Z,8.1
2017-04-07T05:37:17.627Z,8.1
2017-04-07T05:38:20.721Z,8.1
2017-04-07T05:39:23.060Z,8.1
2017-04-07T05:40:25.966Z,8.1
2017-04-07T05:41:28.306Z,8.1
2017-04-07T05:42:30.646Z,8.1
2017-04-07T05:43:33.657Z,8.1
2017-04-07T05:44:36.000Z,8.1
2017-04-07T05:45:38.845Z,8.1
2017-04-07T05:46:41.749Z,8.1
2017-04-07T05:47:44.092Z,8.1
2017-04-07T05:48:46.688Z,8.1
2017-04-07T05:49:49.092Z,8.1
2017-04-07T05:50:51.936Z,8.1
2017-04-07T05:51:54.277Z,8.1
2017-04-07T05:52:57.120Z,8.1
2017-04-07T05:53:59.729Z,8.1
2017-04-07T05:55:02.580Z,8.1
2017-04-07T05:56:04.921Z,8.1
2017-04-07T05:57:07.768Z,8.1
2017-04-07T05:58:10.113Z,8.1
2017-04-07T05:59:13.215Z,8.1
2017-04-07T06:00:15.559Z,8.1
2017-04-07T06:01:17.907Z,8.1
2017-04-07T06:02:20.756Z,8.1
2017-04-07T06:03:23.600Z,8.1
2017-04-07T06:04:26.247Z,8.1
2017-04-07T06:05:28.324Z,8.1
2017-04-07T06:06:31.408Z,8.1
2017-04-07T06:07:34.661Z,8.1
2017-04-07T06:08:36.502Z,8.1
2017-04-07T06:09:39.606Z,8.1
2017-04-07T06:10:41.945Z,8.1
2017-04-07T06:11:44.149Z,8.1
2017-04-07T06:12:46.997Z,8.1
2017-04-07T06:13:49.720Z,8.1
2017-04-07T06:14:53.306Z,8.1
2017-04-07T06:15:55.144Z,8.1
2017-04-07T06:16:57.489Z,8.1
2017-04-07T06:18:00.197Z,8.1
2017-04-07T06:19:02.777Z,8.1
2017-04-07T06:21:08.282Z,8.1
2017-04-07T06:22:10.633Z,8.1
2017-04-07T06:23:13.480Z,8.1
2017-04-07T06:24:15.824Z,8.1
2017-04-07T06:25:18.669Z,8.1
2017-04-07T06:26:21.772Z,8.1
2017-04-07T06:27:23.981Z,8.1
2017-04-07T06:28:26.326Z,8.1
2017-04-07T06:29:29.172Z,8.1
2017-04-07T06:30:32.017Z,8.1
2017-04-07T06:31:34.661Z,8.1
2017-04-07T06:32:37.000Z,8.1
2017-04-07T06:33:39.572Z,8.1
2017-04-07T06:34:42.340Z,8.1
2017-04-07T06:35:45.188Z,8.1
2017-04-07T06:36:47.702Z,8.1
2017-04-07T06:37:50.042Z,8.1
2017-04-07T06:38:52.750Z,8.1
2017-04-07T06:39:55.592Z,8.1
2017-04-07T06:40:57.936Z,8.1
2017-04-07T06:42:01.082Z,8.1
2017-04-07T06:43:03.440Z,8.1
2017-04-07T06:44:06.354Z,8.1
2017-04-07T06:45:08.698Z,8.1
2017-04-07T06:46:11.039Z,8.1
2017-04-07T06:47:14.195Z,8.1
2017-04-07T06:48:16.540Z,8.1
2017-04-07T06:49:19.382Z,8.1
2017-04-07T06:50:21.728Z,8.1
2017-04-07T06:51:24.570Z,8.1
2017-04-07T06:52:27.218Z,8.1
2017-04-07T06:53:29.422Z,8.1
2017-04-07T06:54:32.134Z,8.1
2017-04-07T06:55:34.982Z,8.1
2017-04-07T06:56:37.824Z,8.1
2017-04-07T06:57:40.999Z,8.1
2017-04-07T06:58:42.836Z,8.1
2017-04-07T06:59:45.553Z,8.1
2017-04-07T07:00:47.899Z,8.1
2017-04-07T07:01:51.172Z,8.1
2017-04-07T07:02:53.814Z,8.1
2017-04-07T07:03:56.163Z,8.2
2017-04-07T07:04:58.371Z,8.2
2017-04-07T07:06:01.274Z,8.2
2017-04-07T07:07:04.130Z,8.1
2017-04-07T07:08:06.811Z,8.1
2017-04-07T07:09:09.021Z,8.1
2017-04-07T07:10:11.733Z,8.1
2017-04-07T07:11:14.582Z,8.1
2017-04-07T07:12:16.928Z,8.1
2017-04-07T07:13:20.074Z,8.1
2017-04-07T07:14:22.415Z,8.1
2017-04-07T07:15:24.764Z,8.2
2017-04-07T07:16:27.475Z,8.2
2017-04-07T07:17:30.327Z,8.1
2017-04-07T07:18:32.921Z,8.1
2017-04-07T07:19:35.258Z,8.1
2017-04-07T07:20:38.107Z,8
2017-04-07T07:21:40.822Z,8
2017-04-07T07:22:43.739Z,8
2017-04-07T07:23:46.334Z,8
2017-04-07T07:24:48.683Z,8
2017-04-07T07:25:51.026Z,8
2017-04-07T07:26:53.875Z,8
2017-04-07T07:27:56.719Z,8
2017-04-07T07:28:59.368Z,8
2017-04-07T07:30:01.579Z,8
2017-04-07T07:31:04.427Z,8
2017-04-07T07:32:06.798Z,8
2017-04-07T07:33:09.434Z,7.9
2017-04-07T07:34:12.531Z,7.9
2017-04-07T07:35:14.874Z,7.8
2017-04-07T07:36:17.717Z,7.8
2017-04-07T07:37:20.062Z,7.8
2017-04-07T07:38:22.770Z,7.8
2017-04-07T07:39:25.926Z,7.8
2017-04-07T07:40:28.267Z,7.8
2017-04-07T07:41:30.476Z,7.8
2017-04-07T07:42:33.192Z,7.7
2017-04-07T07:43:36.043Z,7.6
2017-04-07T07:44:38.503Z,7.7
2017-04-07T07:45:41.351Z,7.6
2017-04-07T07:46:43.700Z,7.6
2017-04-07T07:47:46.551Z,7.6
2017-04-07T07:48:48.894Z,7.6
2017-04-07T07:49:51.991Z,7.6
2017-04-07T07:50:54.327Z,7.6
2017-04-07T07:51:57.138Z,7.6
2017-04-07T07:53:00.039Z,7.5
2017-04-07T07:54:02.384Z,7.6
2017-04-07T07:55:04.997Z,7.5
2017-04-07T07:56:07.354Z,7.5
2017-04-07T07:57:10.199Z,7.5
2017-04-07T07:58:12.540Z,7.6
2017-04-07T07:59:15.250Z,7.5
2017-04-07T08:00:18.349Z,7.6
2017-04-07T08:01:20.692Z,7.6
2017-04-07T08:02:23.038Z,7.6
2017-04-07T08:03:26.291Z,7.6
2017-04-07T08:04:28.636Z,7.6
2017-04-07T08:05:31.105Z,7.6
2017-04-07T08:06:33.449Z,7.6
2017-04-07T08:07:36.300Z,7.6
2017-04-07T08:09:41.558Z,7.6
2017-04-07T08:11:47.068Z,7.6
2017-04-07T08:12:49.409Z,7.6
2017-04-07T08:13:52.252Z,7.6
2017-04-07T08:14:54.599Z,7.6
2017-04-07T08:15:57.448Z,7.6
2017-04-07T08:17:00.042Z,7.6
2017-04-07T08:18:02.388Z,7.6
2017-04-07T08:19:05.243Z,7.6
2017-04-07T08:20:07.589Z,7.6
2017-04-07T08:21:10.430Z,7.6
2017-04-07T08:22:13.310Z,7.6
2017-04-07T08:23:15.658Z,7.6
2017-04-07T08:24:19.081Z,7.6
2017-04-07T08:25:20.921Z,7.6
2017-04-07T08:26:23.769Z,7.6
2017-04-07T08:27:26.418Z,7.6
2017-04-07T08:28:28.768Z,7.6
2017-04-07T08:29:31.351Z,7.6
2017-04-07T08:30:34.197Z,7.6
2017-04-07T08:31:36.403Z,7.6
2017-04-07T08:32:39.573Z,7.6
2017-04-07T08:33:41.917Z,7.6
2017-04-07T08:34:44.630Z,7.6
2017-04-07T08:35:46.837Z,7.5
2017-04-07T08:36:49.546Z,7.6
2017-04-07T08:37:52.690Z,7.6
2017-04-07T08:38:55.031Z,7.6
2017-04-07T08:39:57.872Z,7.6
2017-04-07T08:41:00.078Z,7.5
2017-04-07T08:42:02.924Z,7.6
2017-04-07T08:43:06.074Z,7.5
2017-04-07T08:44:07.917Z,7.6
2017-04-07T08:45:10.764Z,7.6
2017-04-07T08:46:13.344Z,7.6
2017-04-07T08:47:16.187Z,7.6
2017-04-07T08:48:18.836Z,7.6
2017-04-07T08:49:21.738Z,7.6
2017-04-07T08:50:23.952Z,7.6
2017-04-07T08:51:26.295Z,7.6
2017-04-07T08:52:29.137Z,7.6
2017-04-07T08:53:32.239Z,7.6
2017-04-07T08:54:34.580Z,7.6
2017-04-07T08:55:37.333Z,7.6
2017-04-07T08:56:40.235Z,7.6
2017-04-07T08:57:42.073Z,7.6
2017-04-07T08:58:45.219Z,7.6
2017-04-07T08:59:47.564Z,7.6
2017-04-07T09:00:49.905Z,7.6
2017-04-07T09:01:52.749Z,7.6
2017-04-07T09:02:55.590Z,7.6
2017-04-07T09:03:58.750Z,7.6
2017-04-07T09:05:00.593Z,7.6
2017-04-07T09:06:03.442Z,7.6
2017-04-07T09:07:06.219Z,7.6
2017-04-07T09:08:08.561Z,7.6
2017-04-07T09:09:11.161Z,7.7
2017-04-07T09:10:14.007Z,7.7
2017-04-07T09:11:16.351Z,7.7
2017-04-07T09:12:19.198Z,7.7
2017-04-07T09:13:21.540Z,7.7
2017-04-07T09:14:24.504Z,7.7
2017-04-07T09:15:27.407Z,7.7
2017-04-07T09:16:29.752Z,7.7
2017-04-07T09:17:31.961Z,7.8
2017-04-07T09:18:34.810Z,7.8
2017-04-07T09:19:37.955Z,7.8
2017-04-07T09:20:39.798Z,7.8
2017-04-07T09:21:42.647Z,7.8
2017-04-07T09:22:46.048Z,7.8
2017-04-07T09:23:47.889Z,7.8
2017-04-07T09:24:50.989Z,7.8
2017-04-07T09:25:53.892Z,7.9
2017-04-07T09:26:55.732Z,7.9
2017-04-07T09:27:58.578Z,8
2017-04-07T09:29:00.920Z,8
2017-04-07T09:30:04.020Z,8
2017-04-07T09:31:06.364Z,8
2017-04-07T09:33:11.626Z,8
2017-04-07T09:34:13.840Z,8
2017-04-07T09:35:16.805Z,8
2017-04-07T09:36:19.648Z,8
2017-04-07T09:37:21.859Z,8
2017-04-07T09:38:24.703Z,8
2017-04-07T09:39:27.547Z,8.1
2017-04-07T09:40:30.138Z,8.1
2017-04-07T09:41:32.478Z,8.1
2017-04-07T09:42:35.318Z,8.1
2017-04-07T09:43:37.528Z,8.1
2017-04-07T09:44:40.237Z,8.1
2017-04-07T09:45:43.437Z,8.1
2017-04-07T09:46:45.641Z,8.1
2017-04-07T09:47:48.350Z,8.2
2017-04-07T09:48:51.193Z,8.2
2017-04-07T09:49:53.537Z,8.2
2017-04-07T09:50:56.688Z,8.1
2017-04-07T09:51:59.036Z,8.1
2017-04-07T09:53:01.385Z,8.1
2017-04-07T09:54:04.231Z,8.1
2017-04-07T09:55:07.136Z,8.2
2017-04-07T09:56:09.653Z,8.2
2017-04-07T09:57:11.993Z,8.2
2017-04-07T09:58:14.700Z,8.2
2017-04-07T09:59:18.100Z,8.2
2017-04-07T10:00:19.938Z,8.3
2017-04-07T10:01:22.820Z,8.3
2017-04-07T10:02:25.724Z,8.3
2017-04-07T10:03:27.634Z,8.3
2017-04-07T10:04:30.480Z,8.3
2017-04-07T10:05:33.325Z,8.3
2017-04-07T10:06:35.919Z,8.3
2017-04-07T10:07:38.128Z,8.3
2017-04-07T10:08:40.704Z,8.4
2017-04-07T10:09:43.550Z,8.4
2017-04-07T10:11:49.102Z,8.3
2017-04-07T10:12:51.444Z,8.3
2017-04-07T10:13:54.289Z,8.4
2017-04-07T10:14:56.635Z,8.4
2017-04-07T10:15:59.483Z,8.4
2017-04-07T10:17:02.639Z,8.4
2017-04-07T10:19:07.391Z,8.5
2017-04-07T10:21:12.645Z,8.5
2017-04-07T10:22:16.387Z,8.5
2017-04-07T10:23:17.721Z,8.6
2017-04-07T10:24:20.569Z,8.6
2017-04-07T10:25:23.414Z,8.6
2017-04-07T10:26:25.765Z,8.6
2017-04-07T10:27:28.872Z,8.6
2017-04-07T10:28:31.219Z,8.6
2017-04-07T10:29:33.565Z,8.6
2017-04-07T10:30:36.411Z,8.6
2017-04-07T10:31:39.262Z,8.6
2017-04-07T10:32:41.858Z,8.6
2017-04-07T10:34:47.113Z,8.6
2017-04-07T10:35:49.455Z,8.6
2017-04-07T10:36:52.297Z,8.6
2017-04-07T10:37:54.888Z,8.6
2017-04-07T10:38:57.733Z,8.6
2017-04-07T10:39:59.950Z,8.6
2017-04-07T10:41:02.798Z,8.6
2017-04-07T10:42:05.646Z,8.6
2017-04-07T10:43:08.239Z,8.6
2017-04-07T10:44:10.579Z,8.6
2017-04-07T10:45:13.431Z,8.6
2017-04-07T10:46:15.770Z,8.6
2017-04-07T10:47:18.612Z,8.6
2017-04-07T10:48:21.776Z,8.6
2017-04-07T10:49:24.542Z,8.6
2017-04-07T10:50:26.386Z,8.6
2017-04-07T10:51:29.230Z,8.6
2017-04-07T10:52:32.073Z,8.6
2017-04-07T10:53:34.722Z,8.6
2017-04-07T10:54:36.937Z,8.5
2017-04-07T10:55:39.788Z,8.5
2017-04-07T10:56:42.506Z,8.6
2017-04-07T10:57:44.847Z,8.6
2017-04-07T10:58:47.946Z,8.5
2017-04-07T10:59:50.288Z,8.6
2017-04-07T11:00:53.134Z,8.6
2017-04-07T11:01:55.476Z,8.5
2017-04-07T11:02:58.320Z,8.6
2017-04-07T11:04:00.963Z,8.6
2017-04-07T11:05:03.173Z,8.6
2017-04-07T11:06:06.021Z,8.6
2017-04-07T11:07:08.872Z,8.6
2017-04-07T11:08:11.212Z,8.6
2017-04-07T11:09:14.310Z,8.6
2017-04-07T11:10:16.657Z,8.6
2017-04-07T11:11:19.375Z,8.6
2017-04-07T11:13:24.634Z,8.6
2017-04-07T11:14:28.405Z,8.6
2017-04-07T11:15:29.739Z,8.6
2017-04-07T11:16:32.590Z,8.6
2017-04-07T11:17:35.439Z,8.6
2017-04-07T11:18:37.776Z,8.6
2017-04-07T11:20:43.325Z,8.6
2017-04-07T11:21:45.671Z,8.6
2017-04-07T11:22:48.519Z,8.6
2017-04-07T11:23:50.870Z,8.6
2017-04-07T11:24:53.718Z,8.6
2017-04-07T11:25:56.812Z,8.6
2017-04-07T11:26:59.160Z,8.6
2017-04-07T11:28:01.501Z,8.6
2017-04-07T11:29:04.916Z,8.6
2017-04-07T11:30:06.828Z,8.6
2017-04-07T11:31:09.926Z,8.6
2017-04-07T11:32:12.275Z,8.6
2017-04-07T11:33:14.544Z,8.6
2017-04-07T11:34:17.117Z,8.6
2017-04-07T11:35:19.963Z,8.6
2017-04-07T11:36:23.117Z,8.6
2017-04-07T11:37:25.495Z,8.6
2017-04-07T11:38:27.839Z,8.6
2017-04-07T11:39:30.686Z,8.6
2017-04-07T11:40:33.534Z,8.6
2017-04-07T11:41:36.181Z,8.7
2017-04-07T11:42:38.524Z,8.7
2017-04-07T11:43:41.240Z,8.7
2017-04-07T11:45:46.358Z,8.6
2017-04-07T11:46:49.505Z,8.7
2017-04-07T11:47:51.845Z,8.6
2017-04-07T11:48:54.690Z,8.6
2017-04-07T11:49:57.034Z,8.6
2017-04-07T11:50:59.877Z,8.7
2017-04-07T11:52:02.467Z,8.7
2017-04-07T11:53:04.812Z,8.7
2017-04-07T11:54:07.655Z,8.7
2017-04-07T11:55:10.504Z,8.7
2017-04-07T11:56:12.848Z,8.6
2017-04-07T11:57:15.998Z,8.6
2017-04-07T11:58:18.339Z,8.6
2017-04-07T11:59:20.684Z,8.7
2017-04-07T12:00:23.565Z,8.7
2017-04-07T12:01:26.410Z,8.7
2017-04-07T12:02:29.056Z,8.7
2017-04-07T12:03:31.399Z,8.7
2017-04-07T12:04:34.245Z,8.7
2017-04-07T12:05:37.001Z,8.7
2017-04-07T12:06:39.221Z,8.7
2017-04-07T12:07:42.369Z,8.7
2017-04-07T12:08:44.577Z,8.7
2017-04-07T12:09:47.427Z,8.7
2017-04-07T12:10:49.769Z,8.7
2017-04-07T12:11:52.615Z,8.8
2017-04-07T12:12:55.768Z,8.8
2017-04-07T12:13:57.979Z,8.8
2017-04-07T12:15:00.332Z,8.8
2017-04-07T12:16:03.184Z,8.8
2017-04-07T12:17:06.033Z,8.8
2017-04-07T12:18:08.681Z,8.8
2017-04-07T12:19:11.029Z,8.8
2017-04-07T12:20:13.741Z,8.8
2017-04-07T12:21:16.461Z,8.8
2017-04-07T12:22:19.367Z,8.8
2017-04-07T12:23:22.021Z,8.9
2017-04-07T12:24:24.413Z,8.9
2017-04-07T12:25:26.764Z,8.9
2017-04-07T12:27:32.015Z,8.9
2017-04-07T12:28:35.116Z,8.9
2017-04-07T12:29:37.459Z,9
2017-04-07T12:30:40.312Z,9
2017-04-07T12:31:42.662Z,9
2017-04-07T12:32:45.939Z,9
2017-04-07T12:33:48.585Z,9
2017-04-07T12:34:50.928Z,9
2017-04-07T12:35:53.331Z,9
2017-04-07T12:36:56.208Z,9
2017-04-07T12:37:58.426Z,9
2017-04-07T12:39:01.592Z,9
2017-04-07T12:40:03.803Z,9
2017-04-07T12:41:06.653Z,9
2017-04-07T12:43:11.906Z,9
2017-04-07T12:44:15.056Z,9
2017-04-07T12:45:17.398Z,9
2017-04-07T12:46:19.477Z,9
2017-04-07T12:47:22.194Z,9
2017-04-07T12:48:25.099Z,9
2017-04-07T12:49:28.247Z,9
2017-04-07T12:50:30.593Z,9
2017-04-07T12:51:33.497Z,9
2017-04-07T12:52:35.707Z,9
2017-04-07T12:53:38.421Z,9
2017-04-07T12:54:41.521Z,9
2017-04-07T12:55:43.738Z,9
2017-04-07T12:56:46.586Z,9
2017-04-07T12:57:48.931Z,9
2017-04-07T12:58:51.779Z,9
2017-04-07T12:59:54.372Z,9
2017-04-07T13:00:57.223Z,9
2017-04-07T13:01:59.567Z,9
2017-04-07T13:03:02.417Z,9
2017-04-07T13:04:04.636Z,9
2017-04-07T13:05:07.748Z,9
2017-04-07T13:06:09.826Z,9
2017-04-07T13:07:13.039Z,9
2017-04-07T13:08:15.385Z,9
2017-04-07T13:09:18.294Z,9
2017-04-07T13:10:20.757Z,9.1
2017-04-07T13:11:23.604Z,9.1
2017-04-07T13:12:25.811Z,9.1
2017-04-07T13:13:28.658Z,9.1
2017-04-07T13:14:31.509Z,9.1
2017-04-07T13:15:34.106Z,9.1
2017-04-07T13:16:36.318Z,9.1
2017-04-07T13:17:39.170Z,9.1
2017-04-07T13:18:41.933Z,9.1
2017-04-07T13:19:44.779Z,9.1
2017-04-07T13:20:47.938Z,9.1
2017-04-07T13:21:49.778Z,9.1
2017-04-07T13:22:52.622Z,9.1
2017-04-07T13:23:55.468Z,9.1
2017-04-07T13:24:57.686Z,9.1
2017-04-07T13:26:00.785Z,9.1
2017-04-07T13:27:03.069Z,9.1
2017-04-07T13:28:06.386Z,9.1
2017-04-07T13:29:08.098Z,9.1
2017-04-07T13:30:10.954Z,9.1
2017-04-07T13:31:14.106Z,9.1
2017-04-07T13:33:18.855Z,9.1
2017-04-07T13:34:21.706Z,9.1
2017-04-07T13:35:24.553Z,9.1
2017-04-07T13:36:27.201Z,9.1
2017-04-07T13:37:29.550Z,9.1
2017-04-07T13:38:32.404Z,9.1
2017-04-07T13:39:34.758Z,9.1
2017-04-07T13:41:40.813Z,9.1
2017-04-07T13:42:43.159Z,9.1
2017-04-07T13:43:45.502Z,9.1
2017-04-07T13:44:48.776Z,9.2
2017-04-07T13:45:50.992Z,9.2
2017-04-07T13:46:53.646Z,9.2
2017-04-07T13:47:55.989Z,9.2
2017-04-07T13:48:58.699Z,9.2
2017-04-07T13:50:01.409Z,9.2
2017-04-07T13:51:04.260Z,9.2
2017-04-07T13:52:06.909Z,9.2
2017-04-07T13:53:09.255Z,9.2
2017-04-07T13:54:12.105Z,9.2
2017-04-07T13:55:14.954Z,9.3
2017-04-07T13:56:17.161Z,9.2
2017-04-07T13:57:20.124Z,9.3
2017-04-07T13:58:22.700Z,9.3
2017-04-07T13:59:25.546Z,9.3
2017-04-07T14:00:27.889Z,9.3
2017-04-07T14:01:30.731Z,9.3
2017-04-07T14:02:33.709Z,9.3
2017-04-07T14:03:35.917Z,9.3
2017-04-07T14:04:38.766Z,9.3
2017-04-07T14:05:41.668Z,9.3
2017-04-07T14:06:44.016Z,9.3
2017-04-07T14:07:46.663Z,9.3
2017-04-07T14:08:49.380Z,9.3
2017-04-07T14:09:51.726Z,9.3
2017-04-07T14:10:54.442Z,9.3
2017-04-07T14:11:57.152Z,9.3
2017-04-07T14:13:00.163Z,9.3
2017-04-07T14:14:02.374Z,9.3
2017-04-07T14:15:05.224Z,9.3
2017-04-07T14:16:07.568Z,9.3
2017-04-07T14:17:10.413Z,9.3
2017-04-07T14:18:13.564Z,9.3
2017-04-07T14:19:15.908Z,9.3
2017-04-07T14:20:18.258Z,9.3
2017-04-07T14:21:21.110Z,9.3
2017-04-07T14:22:23.460Z,9.3
2017-04-07T14:23:27.175Z,9.3
2017-04-07T14:24:29.024Z,9.3
2017-04-07T14:25:31.870Z,9.3
2017-04-07T14:26:34.214Z,9.3
2017-04-07T14:27:37.063Z,9.3
2017-04-07T14:28:40.034Z,9.3
2017-04-07T14:29:42.243Z,9.3
2017-04-07T14:30:45.091Z,9.3
2017-04-07T14:31:47.437Z,9.3
2017-04-07T14:32:50.289Z,9.3
2017-04-07T14:33:52.801Z,9.4
2017-04-07T14:34:55.654Z,9.4
2017-04-07T14:35:58.404Z,9.4
2017-04-07T14:37:00.741Z,9.4
2017-04-07T14:39:06.293Z,9.4
2017-04-07T14:40:08.637Z,9.4
2017-04-07T14:41:11.481Z,9.4
2017-04-07T14:44:19.757Z,9.4
2017-04-07T14:46:24.507Z,9.4
2017-04-07T14:47:27.410Z,9.4
2017-04-07T14:48:30.125Z,9.4
2017-04-07T14:49:32.721Z,9.5
2017-04-07T14:50:35.568Z,9.5
2017-04-07T14:51:37.919Z,9.5
2017-04-07T14:52:40.825Z,9.5
2017-04-07T14:53:43.171Z,9.5
2017-04-07T14:54:46.317Z,9.5
2017-04-07T14:55:48.662Z,9.5
2017-04-07T14:56:51.507Z,9.5
2017-04-07T14:57:54.410Z,9.5
2017-04-07T14:58:57.317Z,9.5
2017-04-07T14:59:59.458Z,9.5
2017-04-07T15:01:01.804Z,9.5
2017-04-07T15:02:04.657Z,9.5
2017-04-07T15:03:07.003Z,9.5
2017-04-07T15:04:09.854Z,9.5
2017-04-07T15:06:15.358Z,9.5
2017-04-07T15:07:17.716Z,9.5
2017-04-07T15:08:20.613Z,9.5
2017-04-07T15:09:22.957Z,9.5
2017-04-07T15:10:25.803Z,9.5
2017-04-07T15:11:28.955Z,9.5
2017-04-07T15:12:31.296Z,9.5
2017-04-07T15:13:33.567Z,9.5
2017-04-07T15:14:36.411Z,9.5
2017-04-07T15:15:39.266Z,9.5
2017-04-07T15:16:41.863Z,9.5
2017-04-07T15:17:44.207Z,9.5
2017-04-07T15:18:46.920Z,9.5
2017-04-07T15:19:49.769Z,9.5
2017-04-07T15:20:52.120Z,9.5
2017-04-07T15:21:55.270Z,9.6
2017-04-07T15:22:57.612Z,9.5
2017-04-07T15:24:00.467Z,9.6
2017-04-07T15:25:02.807Z,9.5
2017-04-07T15:26:05.654Z,9.5
2017-04-07T15:27:08.488Z,9.6
2017-04-07T15:28:10.827Z,9.5
2017-04-07T15:29:13.671Z,9.6
2017-04-07T15:30:16.521Z,9.6
2017-04-07T15:31:18.863Z,9.5
2017-04-07T15:32:22.588Z,9.6